sensor_id;sensor_type;location;lat;lon;timestamp;pressure;altitude;pressure_sealevel;temperature;humidity
68873;BME280;55907;50.806;12.882;2023-04-08T00:00:30;975.9;;;4.2;87.8
68873;BME280;55907;50.806;12.882;2023-04-08T00:03:32;975.9;;;4.2;87.8
68873;BME280;55907;50.806;12.882;2023-04-08T00:06:33;975.9;;;4.2;87.8
68873;BME280;55907;50.806;12.882;2023-04-08T00:09:35;975.9;;;4.2;87.8
68873;BME280;55907;50.806;12.882;2023-04-08T00:12:36;975.9;;;4.2;87.8
68873;BME280;55907;50.806;12.882;2023-04-08T00:15:38;975.9;;;4.2;87.8
68873;BME280;55907;50.806;12.882;2023-04-08T00:18:40;975.9;;;4.2;87.8
68873;BME280;55907;50.806;12.882;2023-04-08T00:21:41;975.9;;;4.2;87.8
68873;BME280;55907;50.806;12.882;2023-04-08T00:24:43;975.9;;;4.2;87.8
68873;BME280;55907;50.806;12.882;2023-04-08T00:27:44;975.9;;;4.2;87.8
68873;BME280;55907;50.806;12.882;2023-04-08T00:30:46;975.9;;;4.2;87.8
68873;BME280;55907;50.806;12.882;2023-04-08T00:33:48;975.9;;;4.2;87.8
68873;BME280;55907;50.806;12.882;2023-04-08T00:36:49;975.9;;;4.2;87.8
68873;BME280;55907;50.806;12.882;2023-04-08T00:39:51;975.9;;;4.2;87.8
68873;BME280;55907;50.806;12.882;2023-04-08T00:42:52;975.9;;;4.2;87.8
68873;BME280;55907;50.806;12.882;2023-04-08T00:45:54;975.9;;;4.2;87.8
68873;BME280;55907;50.806;12.882;2023-04-08T00:48:55;975.9;;;4.2;87.8
68873;BME280;55907;50.806;12.882;2023-04-08T00:51:57;975.9;;;4.2;87.8
68873;BME280;55907;50.806;12.882;2023-04-08T00:54:58;975.9;;;4.3;87.5
68873;BME280;55907;50.806;12.882;2023-04-08T00:58:00;975.8;;;4.2;88.3
68873;BME280;55907;50.806;12.882;2023-04-08T01:01:05;975.9;;;4.3;88.3
68873;BME280;55907;50.806;12.882;2023-04-08T01:04:09;975.9;;;4.3;88.4
68873;BME280;55907;50.806;12.882;2023-04-08T01:07:10;975.9;;;4.3;88.3
68873;BME280;55907;50.806;12.882;2023-04-08T01:10:14;975.9;;;4.4;88.4
68873;BME280;55907;50.806;12.882;2023-04-08T01:16:12;975.9;;;4.4;89.4
68873;BME280;55907;50.806;12.882;2023-04-08T01:19:16;975.9;;;4.4;89.4
68873;BME280;55907;50.806;12.882;2023-04-08T01:22:21;975.9;;;4.4;89.4
68873;BME280;55907;50.806;12.882;2023-04-08T01:25:16;975.9;;;4.4;89.4
68873;BME280;55907;50.806;12.882;2023-04-08T01:28:18;975.9;;;4.4;89.4
68873;BME280;55907;50.806;12.882;2023-04-08T01:31:18;975.9;;;4.4;89.4
68873;BME280;55907;50.806;12.882;2023-04-08T01:34:19;975.9;;;4.4;89.4
68873;BME280;55907;50.806;12.882;2023-04-08T01:37:21;975.9;;;4.4;89.4
68873;BME280;55907;50.806;12.882;2023-04-08T01:40:22;975.9;;;4.4;89.4
68873;BME280;55907;50.806;12.882;2023-04-08T01:46:26;975.9;;;4.4;89.4
68873;BME280;55907;50.806;12.882;2023-04-08T01:49:28;975.9;;;4.4;89.4
68873;BME280;55907;50.806;12.882;2023-04-08T01:52:29;975.9;;;4.4;89.4
68873;BME280;55907;50.806;12.882;2023-04-08T01:58:37;975.8;;;4.4;90.1
68873;BME280;55907;50.806;12.882;2023-04-08T02:01:34;975.8;;;4.4;90.8
68873;BME280;55907;50.806;12.882;2023-04-08T02:04:35;975.8;;;4.5;91.1
68873;BME280;55907;50.806;12.882;2023-04-08T02:07:36;975.7;;;4.5;91.2
68873;BME280;55907;50.806;12.882;2023-04-08T02:10:38;975.8;;;4.6;91.0
68873;BME280;55907;50.806;12.882;2023-04-08T02:13:40;975.8;;;4.6;90.9
68873;BME280;55907;50.806;12.882;2023-04-08T02:16:44;975.8;;;4.6;91.1
68873;BME280;55907;50.806;12.882;2023-04-08T02:19:45;975.8;;;4.6;91.6
68873;BME280;55907;50.806;12.882;2023-04-08T02:22:47;975.8;;;4.6;91.6
68873;BME280;55907;50.806;12.882;2023-04-08T02:28:48;975.8;;;4.6;89.9
68873;BME280;55907;50.806;12.882;2023-04-08T02:31:49;975.8;;;4.6;90.8
68873;BME280;55907;50.806;12.882;2023-04-08T02:34:51;975.8;;;4.6;90.7
68873;BME280;55907;50.806;12.882;2023-04-08T02:37:52;975.8;;;4.6;90.7
68873;BME280;55907;50.806;12.882;2023-04-08T02:40:54;975.8;;;4.6;90.6
68873;BME280;55907;50.806;12.882;2023-04-08T02:43:55;975.8;;;4.6;90.6
68873;BME280;55907;50.806;12.882;2023-04-08T02:46:57;975.8;;;4.6;90.6
68873;BME280;55907;50.806;12.882;2023-04-08T02:49:58;975.8;;;4.6;90.6
68873;BME280;55907;50.806;12.882;2023-04-08T02:53:00;975.8;;;4.6;90.6
68873;BME280;55907;50.806;12.882;2023-04-08T02:56:01;975.8;;;4.6;90.6
68873;BME280;55907;50.806;12.882;2023-04-08T02:59:03;975.8;;;4.6;90.6
68873;BME280;55907;50.806;12.882;2023-04-08T03:02:05;975.8;;;4.6;90.6
68873;BME280;55907;50.806;12.882;2023-04-08T03:05:07;975.8;;;4.6;90.6
68873;BME280;55907;50.806;12.882;2023-04-08T03:08:08;975.8;;;4.6;90.6
68873;BME280;55907;50.806;12.882;2023-04-08T03:11:09;975.8;;;4.6;90.6
68873;BME280;55907;50.806;12.882;2023-04-08T03:14:11;975.8;;;4.6;90.6
68873;BME280;55907;50.806;12.882;2023-04-08T03:17:12;975.8;;;4.6;90.6
68873;BME280;55907;50.806;12.882;2023-04-08T03:20:14;975.8;;;4.6;90.6
68873;BME280;55907;50.806;12.882;2023-04-08T03:23:16;975.9;;;4.7;92.9
68873;BME280;55907;50.806;12.882;2023-04-08T03:26:17;975.9;;;4.7;93.1
68873;BME280;55907;50.806;12.882;2023-04-08T03:29:19;975.9;;;4.7;93.7
68873;BME280;55907;50.806;12.882;2023-04-08T03:32:20;975.9;;;4.7;93.8
68873;BME280;55907;50.806;12.882;2023-04-08T03:35:22;975.9;;;4.7;93.8
68873;BME280;55907;50.806;12.882;2023-04-08T03:38:24;975.9;;;4.7;93.8
68873;BME280;55907;50.806;12.882;2023-04-08T03:41:25;975.9;;;4.7;93.8
68873;BME280;55907;50.806;12.882;2023-04-08T03:44:27;975.9;;;4.7;93.8
68873;BME280;55907;50.806;12.882;2023-04-08T03:47:29;975.9;;;4.7;93.8
68873;BME280;55907;50.806;12.882;2023-04-08T03:50:30;975.9;;;4.7;93.8
68873;BME280;55907;50.806;12.882;2023-04-08T03:53:31;975.9;;;4.7;93.8
68873;BME280;55907;50.806;12.882;2023-04-08T03:56:33;975.9;;;4.7;93.8
68873;BME280;55907;50.806;12.882;2023-04-08T03:59:35;975.9;;;4.7;93.8
68873;BME280;55907;50.806;12.882;2023-04-08T04:02:36;975.9;;;4.7;93.8
68873;BME280;55907;50.806;12.882;2023-04-08T04:05:38;975.9;;;4.7;93.8
68873;BME280;55907;50.806;12.882;2023-04-08T04:08:39;975.9;;;4.7;93.8
68873;BME280;55907;50.806;12.882;2023-04-08T04:11:41;975.9;;;4.7;93.8
68873;BME280;55907;50.806;12.882;2023-04-08T04:14:43;975.9;;;4.7;93.8
68873;BME280;55907;50.806;12.882;2023-04-08T04:17:46;976.2;;;4.6;96.7
68873;BME280;55907;50.806;12.882;2023-04-08T04:20:46;976.2;;;4.6;96.0
68873;BME280;55907;50.806;12.882;2023-04-08T04:23:47;976.2;;;4.7;96.1
68873;BME280;55907;50.806;12.882;2023-04-08T04:26:49;976.2;;;4.7;96.4
68873;BME280;55907;50.806;12.882;2023-04-08T04:29:50;976.1;;;4.7;96.1
68873;BME280;55907;50.806;12.882;2023-04-08T04:32:52;976.1;;;4.7;96.1
68873;BME280;55907;50.806;12.882;2023-04-08T04:35:54;976.1;;;4.7;96.1
68873;BME280;55907;50.806;12.882;2023-04-08T04:38:55;976.1;;;4.7;96.1
68873;BME280;55907;50.806;12.882;2023-04-08T04:41:57;976.1;;;4.7;96.1
68873;BME280;55907;50.806;12.882;2023-04-08T04:44:58;976.1;;;4.7;96.1
68873;BME280;55907;50.806;12.882;2023-04-08T04:48:00;976.1;;;4.7;96.1
68873;BME280;55907;50.806;12.882;2023-04-08T04:51:02;976.4;;;4.8;95.2
68873;BME280;55907;50.806;12.882;2023-04-08T04:54:03;976.4;;;4.7;95.9
68873;BME280;55907;50.806;12.882;2023-04-08T04:57:05;976.4;;;4.7;96.1
68873;BME280;55907;50.806;12.882;2023-04-08T05:00:07;976.4;;;4.7;96.1
68873;BME280;55907;50.806;12.882;2023-04-08T05:06:09;976.4;;;4.7;96.1
68873;BME280;55907;50.806;12.882;2023-04-08T05:09:11;976.4;;;4.7;96.1
68873;BME280;55907;50.806;12.882;2023-04-08T05:12:12;976.4;;;4.7;96.1
68873;BME280;55907;50.806;12.882;2023-04-08T05:15:14;976.4;;;4.7;96.1
68873;BME280;55907;50.806;12.882;2023-04-08T05:18:16;976.4;;;4.7;96.1
68873;BME280;55907;50.806;12.882;2023-04-08T05:21:17;976.6;;;4.7;97.3
68873;BME280;55907;50.806;12.882;2023-04-08T05:24:19;976.6;;;4.7;97.5
68873;BME280;55907;50.806;12.882;2023-04-08T05:27:20;976.5;;;4.7;97.5
68873;BME280;55907;50.806;12.882;2023-04-08T05:30:22;976.6;;;4.7;97.8
68873;BME280;55907;50.806;12.882;2023-04-08T05:33:24;976.6;;;4.8;97.4
68873;BME280;55907;50.806;12.882;2023-04-08T05:36:25;976.7;;;4.8;97.5
68873;BME280;55907;50.806;12.882;2023-04-08T05:39:27;976.7;;;4.9;96.7
68873;BME280;55907;50.806;12.882;2023-04-08T05:42:28;976.7;;;4.8;96.8
68873;BME280;55907;50.806;12.882;2023-04-08T05:45:30;976.8;;;4.8;96.8
68873;BME280;55907;50.806;12.882;2023-04-08T05:48:31;976.7;;;4.8;97.0
68873;BME280;55907;50.806;12.882;2023-04-08T05:51:33;976.7;;;4.8;96.4
68873;BME280;55907;50.806;12.882;2023-04-08T05:54:34;976.7;;;4.8;96.8
68873;BME280;55907;50.806;12.882;2023-04-08T05:57:36;976.7;;;4.8;97.0
68873;BME280;55907;50.806;12.882;2023-04-08T06:00:38;976.7;;;4.8;96.9
68873;BME280;55907;50.806;12.882;2023-04-08T06:03:39;976.8;;;4.9;97.0
68873;BME280;55907;50.806;12.882;2023-04-08T06:06:41;976.8;;;5.0;97.6
68873;BME280;55907;50.806;12.882;2023-04-08T06:09:42;976.9;;;5.0;96.6
68873;BME280;55907;50.806;12.882;2023-04-08T06:12:44;976.9;;;5.1;96.3
68873;BME280;55907;50.806;12.882;2023-04-08T06:15:46;976.9;;;5.1;96.3
68873;BME280;55907;50.806;12.882;2023-04-08T06:18:47;976.9;;;5.1;96.3
68873;BME280;55907;50.806;12.882;2023-04-08T06:21:49;976.9;;;5.1;96.3
68873;BME280;55907;50.806;12.882;2023-04-08T06:24:50;976.9;;;5.1;96.3
68873;BME280;55907;50.806;12.882;2023-04-08T06:27:52;976.9;;;5.1;96.3
68873;BME280;55907;50.806;12.882;2023-04-08T06:33:55;977.1;;;4.9;96.9
68873;BME280;55907;50.806;12.882;2023-04-08T06:36:56;977.1;;;4.8;97.9
68873;BME280;55907;50.806;12.882;2023-04-08T06:39:58;977.1;;;4.9;97.5
68873;BME280;55907;50.806;12.882;2023-04-08T06:43:00;977.2;;;4.9;97.5
68873;BME280;55907;50.806;12.882;2023-04-08T06:46:02;977.1;;;5.0;97.6
68873;BME280;55907;50.806;12.882;2023-04-08T06:49:03;977.2;;;5.0;97.8
68873;BME280;55907;50.806;12.882;2023-04-08T06:52:04;977.2;;;5.1;98.0
68873;BME280;55907;50.806;12.882;2023-04-08T06:55:06;977.3;;;5.2;97.2
68873;BME280;55907;50.806;12.882;2023-04-08T06:58:08;977.2;;;5.3;96.9
68873;BME280;55907;50.806;12.882;2023-04-08T07:01:09;977.2;;;5.3;96.5
68873;BME280;55907;50.806;12.882;2023-04-08T07:04:11;977.2;;;5.3;96.3
68873;BME280;55907;50.806;12.882;2023-04-08T07:07:12;977.3;;;5.4;96.7
68873;BME280;55907;50.806;12.882;2023-04-08T07:10:14;977.3;;;5.5;96.7
68873;BME280;55907;50.806;12.882;2023-04-08T07:13:16;977.2;;;5.5;96.8
68873;BME280;55907;50.806;12.882;2023-04-08T07:16:17;977.2;;;5.5;96.8
68873;BME280;55907;50.806;12.882;2023-04-08T07:19:19;977.2;;;5.5;96.8
68873;BME280;55907;50.806;12.882;2023-04-08T07:22:20;977.2;;;5.5;96.8
68873;BME280;55907;50.806;12.882;2023-04-08T07:25:22;977.2;;;5.5;96.8
68873;BME280;55907;50.806;12.882;2023-04-08T07:28:23;977.2;;;5.5;96.8
68873;BME280;55907;50.806;12.882;2023-04-08T07:31:25;977.4;;;5.7;94.4
68873;BME280;55907;50.806;12.882;2023-04-08T07:34:26;977.4;;;5.6;94.4
68873;BME280;55907;50.806;12.882;2023-04-08T07:37:28;977.5;;;5.6;95.1
68873;BME280;55907;50.806;12.882;2023-04-08T07:40:30;977.5;;;5.6;95.3
68873;BME280;55907;50.806;12.882;2023-04-08T07:43:32;977.5;;;5.5;95.3
68873;BME280;55907;50.806;12.882;2023-04-08T07:46:35;977.5;;;5.5;95.3
68873;BME280;55907;50.806;12.882;2023-04-08T07:49:34;977.5;;;5.5;95.3
68873;BME280;55907;50.806;12.882;2023-04-08T07:52:36;977.5;;;5.5;95.3
68873;BME280;55907;50.806;12.882;2023-04-08T07:55:37;977.7;;;5.6;96.3
68873;BME280;55907;50.806;12.882;2023-04-08T07:58:40;977.7;;;5.6;96.3
68873;BME280;55907;50.806;12.882;2023-04-08T08:01:41;977.7;;;5.6;96.3
68873;BME280;55907;50.806;12.882;2023-04-08T08:04:42;977.7;;;5.6;96.3
68873;BME280;55907;50.806;12.882;2023-04-08T08:07:44;977.7;;;5.6;96.3
68873;BME280;55907;50.806;12.882;2023-04-08T08:10:45;977.7;;;5.6;96.3
68873;BME280;55907;50.806;12.882;2023-04-08T08:13:47;977.7;;;5.6;96.3
68873;BME280;55907;50.806;12.882;2023-04-08T08:19:50;977.7;;;5.6;96.3
68873;BME280;55907;50.806;12.882;2023-04-08T08:22:51;977.7;;;5.6;96.3
68873;BME280;55907;50.806;12.882;2023-04-08T08:25:58;977.7;;;5.6;96.3
68873;BME280;55907;50.806;12.882;2023-04-08T08:28:55;977.7;;;5.6;96.3
68873;BME280;55907;50.806;12.882;2023-04-08T08:31:56;977.7;;;5.6;96.3
68873;BME280;55907;50.806;12.882;2023-04-08T08:34:58;977.7;;;5.6;96.3
68873;BME280;55907;50.806;12.882;2023-04-08T08:37:59;977.9;;;6.6;93.0
68873;BME280;55907;50.806;12.882;2023-04-08T08:41:01;977.9;;;6.5;93.7
68873;BME280;55907;50.806;12.882;2023-04-08T08:44:05;977.9;;;6.5;93.4
68873;BME280;55907;50.806;12.882;2023-04-08T08:47:04;978.0;;;6.5;93.2
68873;BME280;55907;50.806;12.882;2023-04-08T08:50:06;978.0;;;6.5;93.2
68873;BME280;55907;50.806;12.882;2023-04-08T08:53:07;978.0;;;6.5;93.2
68873;BME280;55907;50.806;12.882;2023-04-08T08:56:08;978.0;;;6.4;93.5
68873;BME280;55907;50.806;12.882;2023-04-08T08:59:10;978.1;;;6.5;93.9
68873;BME280;55907;50.806;12.882;2023-04-08T09:02:22;978.1;;;6.6;93.1
68873;BME280;55907;50.806;12.882;2023-04-08T09:05:13;978.2;;;6.7;93.0
68873;BME280;55907;50.806;12.882;2023-04-08T09:08:23;978.1;;;6.8;92.3
68873;BME280;55907;50.806;12.882;2023-04-08T09:11:18;978.1;;;6.8;92.5
68873;BME280;55907;50.806;12.882;2023-04-08T09:14:19;978.1;;;6.8;92.5
68873;BME280;55907;50.806;12.882;2023-04-08T09:17:31;978.1;;;6.8;92.5
68873;BME280;55907;50.806;12.882;2023-04-08T09:20:21;978.1;;;6.8;92.5
68873;BME280;55907;50.806;12.882;2023-04-08T09:23:22;978.1;;;6.8;92.5
68873;BME280;55907;50.806;12.882;2023-04-08T09:26:24;978.1;;;6.8;92.5
68873;BME280;55907;50.806;12.882;2023-04-08T09:29:25;978.1;;;6.8;92.5
68873;BME280;55907;50.806;12.882;2023-04-08T09:32:45;978.1;;;6.8;92.5
68873;BME280;55907;50.806;12.882;2023-04-08T09:35:28;978.1;;;6.8;92.5
68873;BME280;55907;50.806;12.882;2023-04-08T09:38:30;978.4;;;7.1;90.7
68873;BME280;55907;50.806;12.882;2023-04-08T09:41:33;978.4;;;7.2;90.7
68873;BME280;55907;50.806;12.882;2023-04-08T09:44:34;978.4;;;7.4;89.7
68873;BME280;55907;50.806;12.882;2023-04-08T09:47:40;978.4;;;7.5;88.8
68873;BME280;55907;50.806;12.882;2023-04-08T09:50:42;978.4;;;7.5;88.8
68873;BME280;55907;50.806;12.882;2023-04-08T09:53:41;978.5;;;8.0;87.1
68873;BME280;55907;50.806;12.882;2023-04-08T09:56:42;978.5;;;8.0;87.1
68873;BME280;55907;50.806;12.882;2023-04-08T09:59:44;978.5;;;8.1;87.1
68873;BME280;55907;50.806;12.882;2023-04-08T10:02:48;978.5;;;8.1;87.1
68873;BME280;55907;50.806;12.882;2023-04-08T10:05:45;978.5;;;8.1;87.1
68873;BME280;55907;50.806;12.882;2023-04-08T10:08:45;978.5;;;8.1;87.1
68873;BME280;55907;50.806;12.882;2023-04-08T10:11:47;978.5;;;8.1;87.1
68873;BME280;55907;50.806;12.882;2023-04-08T10:17:50;978.5;;;8.1;87.1
68873;BME280;55907;50.806;12.882;2023-04-08T10:20:51;978.5;;;8.1;87.1
68873;BME280;55907;50.806;12.882;2023-04-08T10:23:54;978.5;;;8.1;87.1
68873;BME280;55907;50.806;12.882;2023-04-08T10:26:54;978.5;;;8.1;87.1
68873;BME280;55907;50.806;12.882;2023-04-08T10:29:56;978.5;;;8.1;87.1
68873;BME280;55907;50.806;12.882;2023-04-08T10:32:58;978.5;;;8.1;87.1
68873;BME280;55907;50.806;12.882;2023-04-08T10:36:07;978.5;;;8.1;87.1
68873;BME280;55907;50.806;12.882;2023-04-08T10:39:00;978.5;;;8.1;87.1
68873;BME280;55907;50.806;12.882;2023-04-08T10:42:02;978.7;;;9.2;77.5
68873;BME280;55907;50.806;12.882;2023-04-08T10:45:04;978.7;;;9.1;78.5
68873;BME280;55907;50.806;12.882;2023-04-08T10:48:14;978.7;;;8.9;79.0
68873;BME280;55907;50.806;12.882;2023-04-08T10:51:07;978.7;;;8.6;79.5
68873;BME280;55907;50.806;12.882;2023-04-08T10:54:09;978.7;;;8.5;80.1
68873;BME280;55907;50.806;12.882;2023-04-08T10:57:10;978.7;;;8.5;80.1
68873;BME280;55907;50.806;12.882;2023-04-08T11:00:17;978.7;;;8.5;80.1
68873;BME280;55907;50.806;12.882;2023-04-08T11:03:13;978.7;;;8.5;80.1
68873;BME280;55907;50.806;12.882;2023-04-08T11:06:14;978.6;;;8.9;76.7
68873;BME280;55907;50.806;12.882;2023-04-08T11:09:16;978.7;;;9.2;75.3
68873;BME280;55907;50.806;12.882;2023-04-08T11:12:17;978.7;;;9.8;73.8
68873;BME280;55907;50.806;12.882;2023-04-08T11:15:19;978.7;;;10.5;71.8
68873;BME280;55907;50.806;12.882;2023-04-08T11:18:21;978.7;;;10.8;65.8
68873;BME280;55907;50.806;12.882;2023-04-08T11:21:22;978.8;;;10.8;66.1
68873;BME280;55907;50.806;12.882;2023-04-08T11:24:23;978.8;;;10.5;66.9
68873;BME280;55907;50.806;12.882;2023-04-08T11:30:27;978.9;;;9.8;68.5
68873;BME280;55907;50.806;12.882;2023-04-08T11:33:29;979.0;;;9.8;69.2
68873;BME280;55907;50.806;12.882;2023-04-08T11:36:29;979.0;;;9.9;66.9
68873;BME280;55907;50.806;12.882;2023-04-08T11:39:31;979.0;;;9.7;66.9
68873;BME280;55907;50.806;12.882;2023-04-08T11:42:32;979.0;;;9.6;65.6
68873;BME280;55907;50.806;12.882;2023-04-08T11:45:37;979.0;;;9.4;65.7
68873;BME280;55907;50.806;12.882;2023-04-08T11:48:35;979.0;;;9.4;66.5
68873;BME280;55907;50.806;12.882;2023-04-08T11:51:55;979.0;;;9.4;67.1
68873;BME280;55907;50.806;12.882;2023-04-08T11:54:40;978.9;;;9.2;67.6
68873;BME280;55907;50.806;12.882;2023-04-08T11:57:40;979.0;;;9.2;68.1
68873;BME280;55907;50.806;12.882;2023-04-08T12:00:42;979.0;;;9.2;67.5
68873;BME280;55907;50.806;12.882;2023-04-08T12:03:54;979.0;;;9.3;67.8
68873;BME280;55907;50.806;12.882;2023-04-08T12:06:45;979.0;;;9.4;67.1
68873;BME280;55907;50.806;12.882;2023-04-08T12:09:46;979.0;;;9.7;68.1
68873;BME280;55907;50.806;12.882;2023-04-08T12:12:48;979.0;;;9.6;66.8
68873;BME280;55907;50.806;12.882;2023-04-08T12:15:49;979.0;;;9.6;68.5
68873;BME280;55907;50.806;12.882;2023-04-08T12:18:51;979.0;;;9.6;67.7
68873;BME280;55907;50.806;12.882;2023-04-08T12:24:54;979.1;;;9.5;67.1
68873;BME280;55907;50.806;12.882;2023-04-08T12:27:55;979.1;;;9.3;67.0
68873;BME280;55907;50.806;12.882;2023-04-08T12:30:57;979.1;;;9.3;67.5
68873;BME280;55907;50.806;12.882;2023-04-08T12:33:58;979.1;;;9.1;68.0
68873;BME280;55907;50.806;12.882;2023-04-08T12:37:00;979.2;;;9.1;68.4
68873;BME280;55907;50.806;12.882;2023-04-08T12:40:01;979.2;;;9.2;68.9
68873;BME280;55907;50.806;12.882;2023-04-08T12:43:03;979.2;;;9.3;68.4
68873;BME280;55907;50.806;12.882;2023-04-08T12:46:04;979.2;;;9.4;68.3
68873;BME280;55907;50.806;12.882;2023-04-08T12:49:06;979.2;;;9.5;68.1
68873;BME280;55907;50.806;12.882;2023-04-08T12:52:07;979.2;;;9.7;67.2
68873;BME280;55907;50.806;12.882;2023-04-08T12:55:09;979.2;;;9.8;67.3
68873;BME280;55907;50.806;12.882;2023-04-08T12:58:10;979.2;;;9.8;67.4
68873;BME280;55907;50.806;12.882;2023-04-08T13:01:12;979.2;;;9.8;67.3
68873;BME280;55907;50.806;12.882;2023-04-08T13:04:14;979.2;;;9.8;67.8
68873;BME280;55907;50.806;12.882;2023-04-08T13:07:15;979.2;;;9.8;67.7
68873;BME280;55907;50.806;12.882;2023-04-08T13:10:17;979.1;;;9.9;68.1
68873;BME280;55907;50.806;12.882;2023-04-08T13:13:18;979.2;;;10.0;66.9
68873;BME280;55907;50.806;12.882;2023-04-08T13:16:20;979.1;;;10.1;65.6
68873;BME280;55907;50.806;12.882;2023-04-08T13:19:21;979.2;;;10.1;65.7
68873;BME280;55907;50.806;12.882;2023-04-08T13:22:23;979.2;;;10.0;65.5
68873;BME280;55907;50.806;12.882;2023-04-08T13:25:24;979.2;;;10.0;65.1
68873;BME280;55907;50.806;12.882;2023-04-08T13:28:26;979.2;;;10.1;64.7
68873;BME280;55907;50.806;12.882;2023-04-08T13:31:27;979.2;;;10.1;63.9
68873;BME280;55907;50.806;12.882;2023-04-08T13:34:29;979.2;;;10.4;64.1
68873;BME280;55907;50.806;12.882;2023-04-08T13:37:30;979.2;;;10.4;63.3
68873;BME280;55907;50.806;12.882;2023-04-08T13:40:32;979.2;;;10.3;64.7
68873;BME280;55907;50.806;12.882;2023-04-08T13:43:33;979.2;;;10.0;64.4
68873;BME280;55907;50.806;12.882;2023-04-08T13:46:35;979.2;;;9.8;66.3
68873;BME280;55907;50.806;12.882;2023-04-08T13:49:37;979.1;;;9.7;66.5
68873;BME280;55907;50.806;12.882;2023-04-08T13:52:38;979.2;;;9.7;67.0
68873;BME280;55907;50.806;12.882;2023-04-08T13:55:39;979.2;;;9.5;67.3
68873;BME280;55907;50.806;12.882;2023-04-08T13:58:41;979.2;;;9.4;66.8
68873;BME280;55907;50.806;12.882;2023-04-08T14:01:43;979.2;;;9.3;67.3
68873;BME280;55907;50.806;12.882;2023-04-08T14:04:44;979.1;;;9.1;68.4
68873;BME280;55907;50.806;12.882;2023-04-08T14:07:46;979.2;;;9.1;68.9
68873;BME280;55907;50.806;12.882;2023-04-08T14:13:49;979.2;;;8.8;70.6
68873;BME280;55907;50.806;12.882;2023-04-08T14:16:50;979.2;;;8.8;70.9
68873;BME280;55907;50.806;12.882;2023-04-08T14:19:52;979.2;;;8.7;70.4
68873;BME280;55907;50.806;12.882;2023-04-08T14:22:53;979.3;;;8.7;71.0
68873;BME280;55907;50.806;12.882;2023-04-08T14:25:55;979.3;;;8.7;70.8
68873;BME280;55907;50.806;12.882;2023-04-08T14:28:56;979.3;;;8.7;71.5
68873;BME280;55907;50.806;12.882;2023-04-08T14:31:58;979.3;;;8.8;70.9
68873;BME280;55907;50.806;12.882;2023-04-08T14:34:59;979.3;;;8.8;70.9
68873;BME280;55907;50.806;12.882;2023-04-08T14:38:01;979.3;;;8.9;71.1
68873;BME280;55907;50.806;12.882;2023-04-08T14:41:02;979.4;;;8.9;71.0
68873;BME280;55907;50.806;12.882;2023-04-08T14:44:04;979.4;;;8.9;71.1
68873;BME280;55907;50.806;12.882;2023-04-08T14:47:05;979.4;;;8.8;70.9
68873;BME280;55907;50.806;12.882;2023-04-08T14:50:07;979.4;;;8.7;71.4
68873;BME280;55907;50.806;12.882;2023-04-08T14:53:09;979.4;;;8.6;71.9
68873;BME280;55907;50.806;12.882;2023-04-08T14:56:10;979.4;;;8.6;72.3
68873;BME280;55907;50.806;12.882;2023-04-08T14:59:12;979.5;;;8.4;73.0
68873;BME280;55907;50.806;12.882;2023-04-08T15:02:13;979.5;;;8.3;73.8
68873;BME280;55907;50.806;12.882;2023-04-08T15:05:15;979.4;;;8.3;74.2
68873;BME280;55907;50.806;12.882;2023-04-08T15:08:16;979.5;;;8.3;73.5
68873;BME280;55907;50.806;12.882;2023-04-08T15:11:18;979.5;;;8.4;73.6
68873;BME280;55907;50.806;12.882;2023-04-08T15:14:19;979.5;;;8.5;73.2
68873;BME280;55907;50.806;12.882;2023-04-08T15:17:21;979.5;;;8.5;73.6
68873;BME280;55907;50.806;12.882;2023-04-08T15:20:22;979.5;;;8.6;72.8
68873;BME280;55907;50.806;12.882;2023-04-08T15:23:24;979.5;;;8.6;72.9
68873;BME280;55907;50.806;12.882;2023-04-08T15:26:25;979.5;;;8.6;73.2
68873;BME280;55907;50.806;12.882;2023-04-08T15:29:27;979.6;;;8.6;73.3
68873;BME280;55907;50.806;12.882;2023-04-08T15:32:29;979.5;;;8.5;73.3
68873;BME280;55907;50.806;12.882;2023-04-08T15:35:30;979.5;;;8.4;73.8
68873;BME280;55907;50.806;12.882;2023-04-08T15:38:32;979.5;;;8.3;74.7
68873;BME280;55907;50.806;12.882;2023-04-08T15:41:33;979.5;;;8.2;74.6
68873;BME280;55907;50.806;12.882;2023-04-08T15:44:35;979.6;;;8.1;74.8
68873;BME280;55907;50.806;12.882;2023-04-08T15:47:36;979.6;;;8.0;75.3
68873;BME280;55907;50.806;12.882;2023-04-08T15:50:38;979.7;;;7.8;76.7
68873;BME280;55907;50.806;12.882;2023-04-08T15:53:40;979.7;;;7.7;76.0
68873;BME280;55907;50.806;12.882;2023-04-08T15:56:41;979.8;;;7.7;77.1
68873;BME280;55907;50.806;12.882;2023-04-08T15:59:43;979.7;;;7.8;76.6
68873;BME280;55907;50.806;12.882;2023-04-08T16:02:44;979.7;;;7.8;76.9
68873;BME280;55907;50.806;12.882;2023-04-08T16:05:46;979.7;;;7.8;77.1
68873;BME280;55907;50.806;12.882;2023-04-08T16:08:47;979.8;;;7.9;77.2
68873;BME280;55907;50.806;12.882;2023-04-08T16:14:50;979.8;;;7.8;75.7
68873;BME280;55907;50.806;12.882;2023-04-08T16:17:52;979.9;;;7.7;76.4
68873;BME280;55907;50.806;12.882;2023-04-08T16:20:54;979.9;;;7.7;76.5
68873;BME280;55907;50.806;12.882;2023-04-08T16:23:55;980.0;;;7.6;76.5
68873;BME280;55907;50.806;12.882;2023-04-08T16:26:57;980.0;;;7.6;76.5
68873;BME280;55907;50.806;12.882;2023-04-08T16:29:58;980.1;;;7.7;76.2
68873;BME280;55907;50.806;12.882;2023-04-08T16:33:00;980.0;;;7.7;76.3
68873;BME280;55907;50.806;12.882;2023-04-08T16:36:02;980.1;;;7.7;76.5
68873;BME280;55907;50.806;12.882;2023-04-08T16:39:03;980.1;;;7.7;76.7
68873;BME280;55907;50.806;12.882;2023-04-08T16:42:04;980.1;;;7.7;76.6
68873;BME280;55907;50.806;12.882;2023-04-08T16:45:07;980.2;;;7.7;76.3
68873;BME280;55907;50.806;12.882;2023-04-08T16:48:08;980.2;;;7.7;75.7
68873;BME280;55907;50.806;12.882;2023-04-08T16:51:09;980.2;;;7.7;75.1
68873;BME280;55907;50.806;12.882;2023-04-08T16:54:11;980.2;;;7.7;74.6
68873;BME280;55907;50.806;12.882;2023-04-08T16:57:12;980.3;;;7.6;75.0
68873;BME280;55907;50.806;12.882;2023-04-08T17:00:14;980.3;;;7.6;74.7
68873;BME280;55907;50.806;12.882;2023-04-08T17:03:15;980.3;;;7.5;74.7
68873;BME280;55907;50.806;12.882;2023-04-08T17:06:17;980.4;;;7.5;75.0
68873;BME280;55907;50.806;12.882;2023-04-08T17:09:18;980.4;;;7.4;74.9
68873;BME280;55907;50.806;12.882;2023-04-08T17:12:20;980.4;;;7.4;75.1
68873;BME280;55907;50.806;12.882;2023-04-08T17:15:22;980.4;;;7.3;75.2
68873;BME280;55907;50.806;12.882;2023-04-08T17:18:23;980.5;;;7.2;76.2
68873;BME280;55907;50.806;12.882;2023-04-08T17:21:25;980.6;;;7.3;75.9
68873;BME280;55907;50.806;12.882;2023-04-08T17:24:26;980.6;;;7.3;75.6
68873;BME280;55907;50.806;12.882;2023-04-08T17:27:28;980.6;;;7.3;76.7
68873;BME280;55907;50.806;12.882;2023-04-08T17:30:29;980.7;;;7.4;76.2
68873;BME280;55907;50.806;12.882;2023-04-08T17:33:31;980.6;;;7.5;75.3
68873;BME280;55907;50.806;12.882;2023-04-08T17:36:33;980.7;;;7.6;75.0
68873;BME280;55907;50.806;12.882;2023-04-08T17:39:34;980.7;;;7.6;74.9
68873;BME280;55907;50.806;12.882;2023-04-08T17:42:36;980.7;;;7.7;74.6
68873;BME280;55907;50.806;12.882;2023-04-08T17:45:37;980.7;;;7.6;74.6